Time;durP1;ratioP1;P1;durP2;ratioP2;P2;SDS_P1;SDS_P2;PMS_P1;PMS_P2;Temp;Humidity;BMP_temperature;BMP_pressure;BME280_temperature;BME280_humidity;BME280_pressure;Samples;Min_cycle;Max_cycle;Signal;HPM_P1;HPM_P2
2023/06/06 04:02:13;;;;;;;0.60;0.10;;;19.20;1.00;;;;;;5269106;23;20496;-75
2023/06/06 04:04:41;;;;;;;0.60;0.10;;;19.10;1.00;;;;;;4955473;29;21042;-76
2023/06/06 04:07:10;;;;;;;0.60;0.20;;;19.10;1.00;;;;;;4955676;29;20473;-76
2023/06/06 04:09:39;;;;;;;0.60;0.20;;;19.10;1.00;;;;;;4957409;29;20482;-76
2023/06/06 04:12:08;;;;;;;0.60;0.20;;;19.10;1.00;;;;;;4956879;28;20829;-75
2023/06/06 04:14:36;;;;;;;0.60;0.20;;;19.20;1.00;;;;;;4956040;29;20550;-76
2023/06/06 04:17:05;;;;;;;0.60;0.10;;;19.20;1.00;;;;;;4938250;29;20898;-75
2023/06/06 04:19:36;;;;;;;0.60;0.10;;;19.30;1.00;;;;;;4935455;29;20475;-75
2023/06/06 04:22:05;;;;;;;0.60;0.10;;;19.30;1.00;;;;;;4934754;29;20844;-76
2023/06/06 04:24:33;;;;;;;0.60;0.20;;;19.40;1.00;;;;;;4936462;29;20458;-75
2023/06/06 04:27:03;;;;;;;0.60;0.10;;;19.40;1.00;;;;;;4939251;29;20553;-75
2023/06/06 04:29:32;;;;;;;0.60;0.10;;;19.30;1.00;;;;;;4938935;29;20459;-76
2023/06/06 04:32:00;;;;;;;0.60;0.20;;;19.30;1.00;;;;;;4935543;29;20498;-75
2023/06/06 04:34:29;;;;;;;0.60;0.10;;;19.20;1.00;;;;;;4933981;29;20477;-76
2023/06/06 04:37:03;;;;;;;0.60;0.20;;;19.20;1.00;;;;;;4938836;29;20489;-76
2023/06/06 04:39:32;;;;;;;0.60;0.20;;;19.10;1.00;;;;;;4932365;29;20471;-76
2023/06/06 04:42:02;;;;;;;0.60;0.10;;;19.10;1.00;;;;;;4937503;29;20966;-74
2023/06/06 04:44:30;;;;;;;0.60;0.10;;;19.00;1.00;;;;;;4937327;29;20469;-75
2023/06/06 04:47:01;;;;;;;0.70;0.40;;;18.90;1.00;;;;;;4938284;29;21008;-76
2023/06/06 04:49:30;;;;;;;0.90;0.30;;;18.90;1.00;;;;;;4938313;29;20455;-75
2023/06/06 04:52:02;;;;;;;0.60;0.10;;;18.90;1.00;;;;;;4938770;29;20554;-74
2023/06/06 04:54:31;;;;;;;0.60;0.20;;;18.90;1.00;;;;;;4938164;29;20543;-75
2023/06/06 04:57:00;;;;;;;0.60;0.20;;;18.90;1.00;;;;;;4938378;29;20499;-75
2023/06/06 04:59:29;;;;;;;0.60;0.10;;;19.00;1.00;;;;;;4934219;29;20537;-76
2023/06/06 05:01:57;;;;;;;0.60;0.20;;;18.90;1.00;;;;;;4939609;29;21060;-74
2023/06/06 05:04:26;;;;;;;0.60;0.20;;;18.90;1.00;;;;;;4955138;29;20468;-76
2023/06/06 05:06:53;;;;;;;0.60;0.20;;;18.80;1.00;;;;;;4956445;29;20447;-76
2023/06/06 05:09:23;;;;;;;0.60;0.10;;;18.90;1.00;;;;;;4950092;29;20464;-72
2023/06/06 05:11:52;;;;;;;0.60;0.20;;;19.00;1.00;;;;;;4960906;29;20556;-74
2023/06/06 05:14:23;;;;;;;0.60;0.20;;;19.20;1.00;;;;;;4962201;29;20457;-75
2023/06/06 05:16:52;;;;;;;0.60;0.10;;;19.20;1.00;;;;;;4960205;29;20553;-75
2023/06/06 05:19:21;;;;;;;0.60;0.10;;;19.20;1.00;;;;;;4948226;29;20504;-75
2023/06/06 05:21:49;;;;;;;0.60;0.10;;;19.30;1.00;;;;;;4931443;29;20491;-74
2023/06/06 05:24:17;;;;;;;0.60;0.10;;;19.30;1.00;;;;;;4938279;29;20487;-75
2023/06/06 05:26:46;;;;;;;0.60;0.20;;;19.40;1.00;;;;;;4937845;29;20892;-75
2023/06/06 05:29:14;;;;;;;0.60;0.10;;;19.40;1.00;;;;;;4938525;29;20451;-76
2023/06/06 05:31:42;;;;;;;2.50;0.90;;;19.40;1.00;;;;;;4937890;29;20507;-75
2023/06/06 05:34:10;;;;;;;0.60;0.10;;;19.30;1.00;;;;;;4938560;29;20458;-75
2023/06/06 05:36:38;;;;;;;0.60;0.20;;;19.30;1.00;;;;;;4937321;29;20496;-74
2023/06/06 05:39:06;;;;;;;0.60;0.10;;;19.30;1.00;;;;;;4933503;29;20919;-74
2023/06/06 05:41:34;;;;;;;0.73;0.50;;;19.30;1.00;;;;;;4929492;29;20579;-75
2023/06/06 05:44:03;;;;;;;0.60;0.10;;;19.30;1.00;;;;;;4937695;29;20489;-75
2023/06/06 05:46:31;;;;;;;0.60;0.10;;;19.30;1.00;;;;;;4937446;29;20537;-75
2023/06/06 05:48:58;;;;;;;0.60;0.10;;;19.30;1.00;;;;;;4937854;29;21029;-75
2023/06/06 05:51:27;;;;;;;0.60;0.10;;;19.30;1.00;;;;;;4938435;29;20478;-75
2023/06/06 05:53:55;;;;;;;0.60;0.20;;;19.30;1.00;;;;;;4937318;29;20525;-74
2023/06/06 05:56:40;;;;;;;0.60;0.10;;;19.40;1.00;;;;;;4937391;29;20988;-75
2023/06/06 05:59:09;;;;;;;0.60;0.10;;;19.40;1.00;;;;;;4938500;29;20518;-75
2023/06/06 06:01:39;;;;;;;0.60;0.10;;;19.40;1.00;;;;;;4938921;29;20478;-75
2023/06/06 06:04:08;;;;;;;0.60;0.10;;;19.50;1.00;;;;;;4937560;29;20976;-75
2023/06/06 06:06:37;;;;;;;0.60;0.20;;;19.50;1.00;;;;;;4937728;29;20444;-76
2023/06/06 06:09:05;;;;;;;0.60;0.10;;;19.50;1.00;;;;;;4937584;29;20951;-75
2023/06/06 06:11:33;;;;;;;0.60;0.20;;;19.50;1.00;;;;;;4950002;29;20484;-75
2023/06/06 06:14:01;;;;;;;0.60;0.10;;;19.50;1.00;;;;;;4943871;29;20543;-76
2023/06/06 06:19:35;;;;;;;0.60;0.20;;;19.60;1.00;;;;;;4909826;29;20449;-75
2023/06/06 06:22:03;;;;;;;0.60;0.10;;;19.60;1.00;;;;;;4918904;29;20514;-76
2023/06/06 06:24:31;;;;;;;0.87;0.37;;;19.60;1.00;;;;;;4918712;29;20542;-75
2023/06/06 06:26:59;;;;;;;0.60;0.20;;;19.60;1.00;;;;;;4918343;29;20507;-75
2023/06/06 06:29:27;;;;;;;0.60;0.10;;;19.40;1.00;;;;;;4918124;29;20536;-76
2023/06/06 06:31:56;;;;;;;0.60;0.10;;;19.30;1.00;;;;;;4917470;29;20995;-76
2023/06/06 06:34:24;;;;;;;0.60;0.10;;;19.40;1.00;;;;;;4917753;29;20550;-77
2023/06/06 06:36:52;;;;;;;0.60;0.20;;;19.40;1.00;;;;;;4917640;29;20447;-76
2023/06/06 06:39:20;;;;;;;0.60;0.30;;;19.50;1.00;;;;;;4918423;29;20456;-76
2023/06/06 06:41:48;;;;;;;0.60;0.20;;;19.50;1.00;;;;;;4917872;29;20464;-75
2023/06/06 06:44:16;;;;;;;0.60;0.10;;;19.50;1.00;;;;;;4918093;29;20635;-75
2023/06/06 06:46:44;;;;;;;0.97;0.87;;;19.60;1.00;;;;;;4917945;29;20802;-75
2023/06/06 06:49:16;;;;;;;0.60;0.20;;;19.70;1.00;;;;;;4917257;29;21071;-75
2023/06/06 06:51:44;;;;;;;0.93;0.33;;;19.80;1.00;;;;;;4917194;29;20473;-76
2023/06/06 06:54:13;;;;;;;0.60;0.10;;;19.90;1.00;;;;;;4921948;29;20452;-75
2023/06/06 06:56:42;;;;;;;0.60;0.20;;;19.90;1.00;;;;;;4919896;29;20471;-76
2023/06/06 06:59:17;;;;;;;0.60;0.10;;;20.00;1.00;;;;;;4923545;29;20543;-75
2023/06/06 07:01:48;;;;;;;0.60;0.10;;;;;;;;;;4923529;29;20531;-75
2023/06/06 07:04:18;;;;;;;0.60;0.20;;;20.10;1.00;;;;;;4917041;29;20528;-75
2023/06/06 07:06:46;;;;;;;0.60;0.20;;;20.10;1.00;;;;;;4917132;29;20517;-75
2023/06/06 07:09:15;;;;;;;0.60;0.10;;;20.20;1.00;;;;;;4917099;29;20451;-75
2023/06/06 07:11:42;;;;;;;0.60;0.20;;;20.20;1.00;;;;;;4945166;29;21074;-76
2023/06/06 07:14:10;;;;;;;0.60;0.20;;;20.20;1.00;;;;;;4954958;29;20542;-75
2023/06/06 07:16:39;;;;;;;0.60;0.10;;;20.20;1.00;;;;;;4955649;29;20463;-76
2023/06/06 07:19:07;;;;;;;0.60;0.20;;;20.30;1.00;;;;;;4954968;29;20566;-76
2023/06/06 07:21:36;;;;;;;0.60;0.10;;;20.40;1.00;;;;;;4955671;28;20458;-75
2023/06/06 07:24:04;;;;;;;0.60;0.20;;;20.40;1.00;;;;;;4955512;29;20447;-76
2023/06/06 07:26:32;;;;;;;0.60;0.20;;;20.40;1.00;;;;;;4955166;29;21009;-76
2023/06/06 07:29:00;;;;;;;0.60;0.10;;;20.40;1.00;;;;;;4954537;29;20478;-76
2023/06/06 07:31:28;;;;;;;0.60;0.20;;;20.50;1.00;;;;;;4954975;29;20561;-76
2023/06/06 07:33:59;;;;;;;0.60;0.20;;;20.50;1.00;;;;;;4955042;29;20447;-76
2023/06/06 07:36:27;;;;;;;0.70;0.20;;;20.60;1.00;;;;;;4954734;29;20446;-75
2023/06/06 07:38:57;;;;;;;0.60;0.10;;;20.60;1.00;;;;;;4954415;29;20581;-74
2023/06/06 07:41:29;;;;;;;0.60;0.10;;;20.70;1.00;;;;;;4954828;29;20580;-75
2023/06/06 07:43:57;;;;;;;0.60;0.10;;;20.80;1.00;;;;;;4954861;29;20450;-75
2023/06/06 07:46:25;;;;;;;0.60;0.20;;;20.80;1.00;;;;;;4955557;29;20486;-75
2023/06/06 07:48:53;;;;;;;0.60;0.13;;;20.90;1.00;;;;;;4954970;29;20447;-75
2023/06/06 07:51:21;;;;;;;0.60;0.20;;;20.90;1.00;;;;;;4957128;29;20470;-75
2023/06/06 07:53:49;;;;;;;0.60;0.10;;;21.00;1.00;;;;;;4955572;29;20451;-75
2023/06/06 07:56:20;;;;;;;0.60;0.10;;;21.00;1.00;;;;;;4955492;29;20451;-74
2023/06/06 07:58:52;;;;;;;0.70;0.47;;;21.20;1.00;;;;;;4955894;29;20498;-75
2023/06/06 08:01:21;;;;;;;0.60;0.10;;;21.20;1.00;;;;;;4955956;29;20630;-75
2023/06/06 08:03:50;;;;;;;0.60;0.10;;;21.20;1.00;;;;;;4956313;28;20479;-75
2023/06/06 08:06:18;;;;;;;0.60;0.20;;;21.20;1.00;;;;;;4972189;29;20479;-76
2023/06/06 08:08:48;;;;;;;0.60;0.10;;;21.30;1.00;;;;;;4975600;29;20459;-76
2023/06/06 08:11:17;;;;;;;0.60;0.10;;;21.50;1.00;;;;;;4968995;29;20830;-74
2023/06/06 08:13:46;;;;;;;0.60;0.20;;;21.40;1.00;;;;;;4943939;29;20555;-75
2023/06/06 08:16:13;;;;;;;0.60;0.10;;;21.50;1.00;;;;;;4940445;29;20455;-75
2023/06/06 08:18:41;;;;;;;0.60;0.17;;;21.60;1.00;;;;;;4939441;29;20488;-76
2023/06/06 08:21:09;;;;;;;0.60;0.10;;;21.70;1.00;;;;;;4939909;29;20559;-75
2023/06/06 08:23:37;;;;;;;0.60;0.10;;;21.80;1.00;;;;;;4939203;29;20482;-75
2023/06/06 08:26:05;;;;;;;0.60;0.10;;;;;;;;;;4939785;29;20503;-75
2023/06/06 08:28:35;;;;;;;0.60;0.10;;;21.90;1.00;;;;;;4939842;29;20447;-76
2023/06/06 08:31:03;;;;;;;0.60;0.20;;;21.90;1.00;;;;;;4939455;29;20483;-75
2023/06/06 08:33:32;;;;;;;0.60;0.10;;;;;;;;;;4938947;29;20488;-75
2023/06/06 08:36:00;;;;;;;0.70;0.20;;;;;;;;;;4939541;29;20454;-75
2023/06/06 08:38:31;;;;;;;0.60;0.10;;;22.10;1.00;;;;;;4941725;29;20479;-74
2023/06/06 08:41:02;;;;;;;2.30;0.60;;;22.10;1.00;;;;;;4940324;29;20504;-74
2023/06/06 08:43:36;;;;;;;0.60;0.10;;;22.10;1.00;;;;;;4939440;29;20986;-75
2023/06/06 08:46:06;;;;;;;2.30;1.80;;;23.20;1.00;;;;;;4940253;29;20853;-75
2023/06/06 08:48:35;;;;;;;0.60;0.20;;;22.20;1.00;;;;;;4939574;29;20477;-75
2023/06/06 08:51:04;;;;;;;0.70;0.20;;;22.30;1.00;;;;;;4938957;29;20464;-75
2023/06/06 08:53:33;;;;;;;0.60;0.10;;;22.40;1.00;;;;;;4939005;29;20460;-76
2023/06/06 08:56:04;;;;;;;0.60;0.10;;;22.40;1.00;;;;;;4939841;29;20509;-76
2023/06/06 08:58:33;;;;;;;0.60;0.10;;;22.40;1.00;;;;;;4940272;29;21043;-76
2023/06/06 09:01:03;;;;;;;0.60;0.27;;;22.50;1.00;;;;;;4939307;29;20556;-76
2023/06/06 09:03:33;;;;;;;0.90;0.30;;;22.50;1.00;;;;;;4939368;29;20492;-75
2023/06/06 09:06:05;;;;;;;0.70;0.10;;;22.50;1.00;;;;;;4938978;29;20844;-75
2023/06/06 09:08:33;;;;;;;0.60;0.10;;;22.60;1.00;;;;;;4938756;29;20482;-75
2023/06/06 09:11:01;;;;;;;0.60;0.10;;;22.60;1.00;;;;;;4947099;29;20476;-75
2023/06/06 09:13:29;;;;;;;0.70;0.30;;;22.70;1.00;;;;;;4957745;29;20505;-75
2023/06/06 09:15:57;;;;;;;0.70;0.10;;;22.80;1.00;;;;;;4957020;28;20453;-76
2023/06/06 09:18:28;;;;;;;2.80;1.73;;;22.80;1.00;;;;;;4957863;29;20877;-77
2023/06/06 09:20:58;;;;;;;1.07;0.67;;;;;;;;;;4957868;29;20503;-76
2023/06/06 09:23:30;;;;;;;0.70;0.10;;;;;;;;;;4957236;29;20544;-75
2023/06/06 09:25:58;;;;;;;0.70;0.20;;;22.70;1.00;;;;;;4958057;29;20451;-75
2023/06/06 09:28:37;;;;;;;0.70;0.17;;;22.80;1.00;;;;;;4958176;29;20497;-76
2023/06/06 09:31:23;;;;;;;0.80;0.80;;;22.90;1.00;;;;;;4958175;29;20743;-75
2023/06/06 09:33:56;;;;;;;0.70;0.10;;;22.90;1.00;;;;;;4957456;29;20448;-76
2023/06/06 09:36:28;;;;;;;0.70;0.20;;;22.90;1.00;;;;;;4958208;29;20447;-76
2023/06/06 09:38:59;;;;;;;1.07;0.97;;;23.00;1.00;;;;;;4958395;29;20483;-75
2023/06/06 09:41:30;;;;;;;0.70;0.10;;;23.00;1.00;;;;;;4958596;29;21026;-75
2023/06/06 09:43:58;;;;;;;0.70;0.20;;;23.00;1.00;;;;;;4958097;29;20538;-76
2023/06/06 09:46:27;;;;;;;0.70;0.20;;;23.00;1.00;;;;;;4958309;29;20448;-75
2023/06/06 09:48:58;;;;;;;0.67;0.10;;;23.00;1.00;;;;;;4958513;29;20445;-75
2023/06/06 09:51:30;;;;;;;0.70;0.10;;;23.00;1.00;;;;;;4958171;29;20567;-75
2023/06/06 09:54:01;;;;;;;0.70;0.30;;;23.00;1.00;;;;;;4957731;29;20814;-76
2023/06/06 09:56:33;;;;;;;0.70;0.40;;;23.00;1.00;;;;;;4957103;29;20519;-76
2023/06/06 09:59:02;;;;;;;0.70;0.20;;;23.00;1.00;;;;;;4957455;29;20518;-76
2023/06/06 10:01:34;;;;;;;0.67;0.20;;;23.20;1.00;;;;;;4957071;29;20526;-75
2023/06/06 10:04:04;;;;;;;0.70;0.10;;;23.20;1.00;;;;;;4956850;29;20449;-75
2023/06/06 10:06:34;;;;;;;0.70;0.20;;;23.30;1.00;;;;;;4956803;29;20444;-74
2023/06/06 10:09:04;;;;;;;0.70;0.20;;;;;;;;;;4956773;29;20936;-76
2023/06/06 10:11:33;;;;;;;0.70;0.10;;;23.50;1.00;;;;;;4957338;29;20528;-75
2023/06/06 10:14:02;;;;;;;3.80;0.83;;;23.50;1.00;;;;;;4957450;29;20514;-75
2023/06/06 10:16:31;;;;;;;0.70;0.20;;;23.40;1.00;;;;;;4978086;23;20528;-77
2023/06/06 10:19:00;;;;;;;0.70;0.20;;;23.40;1.00;;;;;;4960214;29;20511;-77
2023/06/06 10:21:31;;;;;;;0.70;0.10;;;23.40;1.00;;;;;;4960733;29;20457;-77
2023/06/06 10:24:00;;;;;;;0.70;0.40;;;23.50;1.00;;;;;;4961030;29;20459;-77
2023/06/06 10:26:33;;;;;;;0.70;0.10;;;23.60;1.00;;;;;;4961704;28;20996;-76
2023/06/06 10:29:05;;;;;;;0.80;0.60;;;23.60;1.00;;;;;;4960480;29;20446;-77
2023/06/06 10:31:41;;;;;;;0.80;0.40;;;23.70;1.00;;;;;;4958305;29;20450;-76
2023/06/06 10:34:15;;;;;;;0.70;0.10;;;23.70;1.00;;;;;;4958473;29;20958;-76
2023/06/06 10:36:45;;;;;;;0.70;0.20;;;23.80;1.00;;;;;;4958211;28;20500;-77
2023/06/06 10:39:19;;;;;;;0.70;0.20;;;23.70;1.00;;;;;;4960265;29;20480;-76
2023/06/06 10:41:55;;;;;;;0.70;0.20;;;23.80;1.00;;;;;;4958711;29;20449;-75
2023/06/06 10:44:28;;;;;;;0.70;0.20;;;24.00;1.00;;;;;;4962253;29;20481;-77
2023/06/06 10:47:29;;;;;;;0.70;0.20;;;24.10;1.00;;;;;;4958881;28;20474;-77
2023/06/06 10:50:22;;;;;;;0.70;0.20;;;24.10;1.00;;;;;;4958582;29;20937;-78
2023/06/06 10:52:52;;;;;;;0.70;0.20;;;24.20;1.00;;;;;;4955562;29;20980;-77
2023/06/06 10:55:41;;;;;;;1.30;0.30;;;24.30;1.00;;;;;;4955340;28;20514;-77
2023/06/06 10:58:13;;;;;;;1.83;1.37;;;24.20;1.00;;;;;;4956181;29;20474;-77
2023/06/06 11:00:42;;;;;;;0.70;0.20;;;24.10;1.00;;;;;;4954883;29;20489;-77
2023/06/06 11:03:13;;;;;;;0.70;0.30;;;24.20;1.00;;;;;;4954989;29;20489;-77
2023/06/06 11:06:20;;;;;;;0.70;0.10;;;24.30;1.00;;;;;;4955157;28;20474;-76
2023/06/06 11:08:53;;;;;;;0.70;0.10;;;24.30;1.00;;;;;;4945483;28;20556;-76
2023/06/06 11:11:26;;;;;;;0.70;0.20;;;24.40;1.00;;;;;;4967282;28;20797;-77
2023/06/06 11:13:56;;;;;;;0.73;0.33;;;24.40;1.00;;;;;;4973598;28;20544;-76
2023/06/06 11:16:57;;;;;;;0.70;0.10;;;24.50;1.00;;;;;;4966688;28;20483;-77
2023/06/06 11:19:32;;;;;;;0.80;0.30;;;24.50;1.00;;;;;;4974238;28;20449;-77
2023/06/06 11:22:02;;;;;;;2.50;1.13;;;24.70;1.00;;;;;;4973975;28;20475;-76
2023/06/06 11:24:36;;;;;;;0.70;0.20;;;24.70;1.00;;;;;;4974681;28;20512;-77
2023/06/06 11:27:06;;;;;;;0.70;0.20;;;24.50;1.00;;;;;;4973722;28;20841;-76
2023/06/06 11:29:35;;;;;;;0.70;0.20;;;24.60;1.00;;;;;;4974544;28;20547;-76
2023/06/06 11:32:09;;;;;;;0.70;0.30;;;24.70;1.00;;;;;;4974270;28;20487;-77
2023/06/06 11:34:38;;;;;;;0.90;0.50;;;24.80;1.00;;;;;;4976593;28;20480;-77
2023/06/06 11:37:08;;;;;;;0.80;0.30;;;24.80;1.00;;;;;;4979654;28;20468;-76
2023/06/06 11:39:36;;;;;;;0.70;0.20;;;24.60;1.00;;;;;;4981022;28;20477;-76
2023/06/06 11:42:06;;;;;;;0.70;0.47;;;24.60;1.00;;;;;;4980298;28;20451;-76
2023/06/06 11:44:35;;;;;;;0.80;0.53;;;24.70;1.00;;;;;;4979180;28;20445;-77
2023/06/06 11:47:08;;;;;;;1.00;0.57;;;24.80;1.00;;;;;;4977806;28;20469;-76
2023/06/06 11:49:45;;;;;;;0.70;0.10;;;24.90;1.00;;;;;;4977863;28;20453;-77
2023/06/06 11:52:14;;;;;;;1.80;0.50;;;25.10;1.00;;;;;;4977685;28;20453;-76
2023/06/06 11:54:52;;;;;;;0.70;0.10;;;25.10;1.00;;;;;;4977762;28;20892;-77
2023/06/06 11:57:22;;;;;;;1.20;0.57;;;25.30;1.00;;;;;;4977434;28;20517;-77
2023/06/06 11:59:54;;;;;;;0.70;0.10;;;25.40;1.00;;;;;;4977968;28;20492;-77
2023/06/06 12:02:22;;;;;;;0.80;0.30;;;25.20;1.00;;;;;;4978862;28;20456;-76
2023/06/06 12:04:50;;;;;;;1.63;0.40;;;25.30;1.00;;;;;;4977489;28;20453;-78
2023/06/06 12:07:19;;;;;;;0.70;0.20;;;25.30;1.00;;;;;;4977638;28;20481;-77
2023/06/06 12:09:55;;;;;;;0.70;0.10;;;25.50;1.00;;;;;;4977097;28;20453;-78
2023/06/06 12:12:24;;;;;;;0.90;0.50;;;25.50;1.00;;;;;;4939368;29;20451;-77
2023/06/06 12:15:00;;;;;;;0.70;0.10;;;25.40;1.00;;;;;;4939094;29;20460;-78
2023/06/06 12:17:28;;;;;;;0.70;0.10;;;25.40;1.00;;;;;;4939523;29;20482;-77
2023/06/06 12:19:57;;;;;;;0.70;0.20;;;25.50;1.00;;;;;;4938975;29;20833;-77
2023/06/06 12:22:29;;;;;;;0.70;0.20;;;25.60;1.00;;;;;;4938350;29;20468;-77
2023/06/06 12:24:57;;;;;;;0.70;0.20;;;25.80;1.00;;;;;;4938623;29;20479;-77
2023/06/06 12:27:27;;;;;;;0.77;0.40;;;25.80;1.00;;;;;;4931998;29;20476;-78
2023/06/06 12:29:56;;;;;;;1.50;0.90;;;25.90;1.00;;;;;;4939734;29;21016;-77
2023/06/06 12:32:25;;;;;;;1.17;1.07;;;25.70;1.00;;;;;;4938997;29;20551;-77
2023/06/06 12:35:00;;;;;;;0.90;0.40;;;25.40;1.00;;;;;;4938497;29;20483;-77
2023/06/06 12:37:39;;;;;;;0.70;0.20;;;25.30;1.00;;;;;;4939033;29;20798;-76
2023/06/06 12:40:18;;;;;;;0.70;0.20;;;25.20;1.00;;;;;;4938395;29;20454;-77
2023/06/06 12:42:54;;;;;;;0.70;0.30;;;25.20;1.00;;;;;;4938543;29;20447;-78
2023/06/06 12:45:23;;;;;;;2.50;1.90;;;25.10;1.00;;;;;;4938936;29;20518;-77
2023/06/06 12:47:52;;;;;;;1.07;0.77;;;25.00;1.00;;;;;;4940754;29;20450;-77
2023/06/06 12:50:21;;;;;;;0.70;0.20;;;24.80;1.00;;;;;;4946400;29;20512;-77
2023/06/06 12:52:49;;;;;;;0.70;0.43;;;24.80;1.00;;;;;;4958134;29;20462;-76
2023/06/06 12:55:18;;;;;;;0.70;0.20;;;24.70;1.00;;;;;;4953803;28;20480;-75
2023/06/06 12:57:47;;;;;;;0.70;0.20;;;24.60;1.00;;;;;;4946073;28;20443;-77
2023/06/06 13:00:19;;;;;;;0.70;0.10;;;24.50;1.00;;;;;;4941847;29;20816;-77
2023/06/06 13:02:48;;;;;;;0.70;0.10;;;24.40;1.00;;;;;;4949306;29;20884;-76
2023/06/06 13:05:17;;;;;;;0.97;0.37;;;24.30;1.00;;;;;;4955898;29;20471;-76
2023/06/06 13:07:45;;;;;;;0.90;0.63;;;24.30;1.00;;;;;;4948850;29;20504;-75
2023/06/06 13:10:13;;;;;;;0.70;0.13;;;24.20;1.00;;;;;;4950551;28;20458;-76
2023/06/06 13:12:42;;;;;;;0.90;0.40;;;24.10;1.00;;;;;;4940029;29;20447;-76
2023/06/06 13:15:12;;;;;;;0.90;0.30;;;24.00;1.00;;;;;;4948471;29;20794;-76
2023/06/06 13:17:41;;;;;;;0.70;0.20;;;24.00;1.00;;;;;;4940916;29;20984;-76
2023/06/06 13:20:14;;;;;;;3.37;0.50;;;24.00;1.00;;;;;;4955072;29;20445;-75
2023/06/06 13:22:42;;;;;;;0.70;0.23;;;24.00;1.00;;;;;;4942851;29;20510;-76
2023/06/06 13:25:10;;;;;;;0.70;0.20;;;24.10;1.00;;;;;;4944114;29;20450;-76
2023/06/06 13:27:38;;;;;;;0.80;0.23;;;24.00;1.00;;;;;;4942031;29;20446;-75
2023/06/06 13:30:07;;;;;;;0.70;0.20;;;24.10;1.00;;;;;;4938240;29;20443;-76
2023/06/06 13:32:35;;;;;;;0.70;0.10;;;24.20;1.00;;;;;;4938545;29;20509;-75
2023/06/06 13:35:05;;;;;;;0.70;0.20;;;24.30;1.00;;;;;;4937891;29;20445;-75
2023/06/06 13:37:33;;;;;;;1.30;0.53;;;24.30;1.00;;;;;;4937688;29;20978;-74
2023/06/06 13:40:02;;;;;;;0.70;0.20;;;24.30;1.00;;;;;;4937765;29;21037;-75
2023/06/06 13:42:30;;;;;;;1.00;0.20;;;24.30;1.00;;;;;;4937261;29;20518;-76
2023/06/06 13:44:58;;;;;;;0.93;0.40;;;24.20;1.00;;;;;;4938811;29;20443;-77
2023/06/06 13:47:26;;;;;;;0.77;0.43;;;24.20;1.00;;;;;;4938182;29;20443;-75
2023/06/06 13:49:55;;;;;;;0.70;0.10;;;24.30;1.00;;;;;;4938879;29;20468;-74
2023/06/06 13:52:26;;;;;;;1.87;0.43;;;24.30;1.00;;;;;;4952003;29;20505;-74
2023/06/06 13:54:57;;;;;;;1.00;0.57;;;;;;;;;;4956386;29;20444;-76
2023/06/06 13:57:28;;;;;;;0.70;0.20;;;24.50;1.00;;;;;;4948376;29;20445;-76
2023/06/06 13:59:57;;;;;;;0.70;0.20;;;24.60;1.00;;;;;;4955571;28;20454;-75
2023/06/06 14:02:25;;;;;;;0.70;0.20;;;24.80;1.00;;;;;;4955129;29;20536;-75
2023/06/06 14:04:53;;;;;;;1.17;1.07;;;25.10;1.00;;;;;;4944004;29;20451;-73
2023/06/06 14:07:20;;;;;;;0.70;0.10;;;25.50;1.00;;;;;;4937274;29;20968;-75
2023/06/06 14:09:50;;;;;;;0.80;0.40;;;25.60;1.00;;;;;;4937047;29;20476;-74
2023/06/06 14:12:18;;;;;;;0.70;0.10;;;25.80;1.00;;;;;;4939547;28;20962;-76
2023/06/06 14:14:47;;;;;;;0.70;0.33;;;25.70;1.00;;;;;;4937141;29;20456;-76
2023/06/06 14:17:16;;;;;;;5.90;3.70;;;25.70;1.00;;;;;;4936172;29;20492;-74
2023/06/06 14:19:50;;;;;;;0.70;0.20;;;25.50;1.00;;;;;;4937738;29;20451;-75
2023/06/06 14:22:23;;;;;;;0.70;0.20;;;25.40;1.00;;;;;;4936483;29;20900;-75
2023/06/06 14:24:55;;;;;;;0.80;0.53;;;25.20;1.00;;;;;;4937205;29;20498;-74
2023/06/06 14:27:23;;;;;;;0.80;0.40;;;25.10;1.00;;;;;;4937802;29;20506;-75
2023/06/06 14:29:52;;;;;;;0.70;0.17;;;25.00;1.00;;;;;;4936808;29;20443;-75
2023/06/06 14:32:28;;;;;;;0.70;0.20;;;24.90;1.00;;;;;;4936497;29;20498;-76
2023/06/06 14:35:01;;;;;;;0.80;0.57;;;24.70;1.00;;;;;;4936895;29;20450;-75
2023/06/06 14:37:29;;;;;;;0.70;0.10;;;24.70;1.00;;;;;;4937324;29;20454;-76
2023/06/06 14:39:59;;;;;;;0.70;0.20;;;24.70;1.00;;;;;;4943823;29;20495;-75
2023/06/06 14:42:28;;;;;;;0.70;0.10;;;24.70;1.00;;;;;;4951949;29;20510;-76
2023/06/06 14:44:57;;;;;;;0.70;0.20;;;;;;;;;;4958820;29;20457;-76
2023/06/06 14:47:25;;;;;;;0.70;0.20;;;24.70;1.00;;;;;;4961524;29;20822;-74
2023/06/06 14:49:53;;;;;;;0.90;0.30;;;24.70;1.00;;;;;;4958775;29;20457;-75
2023/06/06 14:52:21;;;;;;;0.70;0.20;;;24.70;1.00;;;;;;4955765;29;20824;-77
2023/06/06 14:54:49;;;;;;;0.70;0.10;;;25.10;1.00;;;;;;4958214;29;21075;-75
2023/06/06 14:57:19;;;;;;;0.70;0.20;;;25.10;1.00;;;;;;4956939;29;20470;-75
2023/06/06 14:59:47;;;;;;;0.70;0.30;;;25.30;1.00;;;;;;4958636;29;20449;-75
2023/06/06 15:02:15;;;;;;;0.87;0.60;;;25.40;1.00;;;;;;4945893;29;20533;-76
2023/06/06 15:04:44;;;;;;;2.60;2.10;;;25.60;1.00;;;;;;4946184;29;20442;-77
2023/06/06 15:07:12;;;;;;;1.00;0.90;;;25.70;1.00;;;;;;4951595;28;20488;-76
2023/06/06 15:09:40;;;;;;;0.70;0.10;;;25.80;1.00;;;;;;4965512;28;20545;-77
2023/06/06 15:12:11;;;;;;;0.70;0.10;;;25.80;1.00;;;;;;4956295;28;20530;-76
2023/06/06 15:14:41;;;;;;;0.70;0.10;;;26.00;1.00;;;;;;4954236;29;20451;-75
2023/06/06 15:17:10;;;;;;;0.70;0.20;;;26.10;1.00;;;;;;4966027;28;20488;-76
2023/06/06 15:19:40;;;;;;;0.70;0.30;;;26.30;1.00;;;;;;4953862;28;20451;-75
2023/06/06 15:22:09;;;;;;;0.80;0.43;;;26.40;1.00;;;;;;4954235;29;20486;-76
2023/06/06 15:24:40;;;;;;;1.30;0.30;;;26.30;1.00;;;;;;4954187;29;20451;-76
2023/06/06 15:27:08;;;;;;;1.03;0.67;;;26.20;1.00;;;;;;4960969;28;20888;-76
2023/06/06 15:29:37;;;;;;;0.70;0.20;;;26.10;1.00;;;;;;4957979;28;20447;-76
2023/06/06 15:32:08;;;;;;;0.70;0.20;;;26.20;1.00;;;;;;4956766;29;20970;-76
2023/06/06 15:34:37;;;;;;;0.80;0.50;;;26.40;1.00;;;;;;4955686;28;20996;-74
2023/06/06 15:37:06;;;;;;;0.80;0.40;;;;;;;;;;4961694;28;20565;-75
2023/06/06 15:39:39;;;;;;;0.70;0.20;;;26.60;1.00;;;;;;4971961;28;20841;-76
2023/06/06 15:42:07;;;;;;;1.67;0.70;;;26.60;1.00;;;;;;4974272;28;20521;-76
2023/06/06 15:44:37;;;;;;;0.70;0.10;;;26.50;1.00;;;;;;4973966;28;20449;-76
2023/06/06 15:47:07;;;;;;;0.90;0.43;;;26.50;1.00;;;;;;4954664;28;20513;-76
2023/06/06 15:49:35;;;;;;;0.80;0.30;;;26.40;1.00;;;;;;4948967;28;20904;-75
2023/06/06 15:52:03;;;;;;;0.70;0.17;;;26.60;1.00;;;;;;4952445;28;20534;-74
2023/06/06 15:54:31;;;;;;;0.70;0.10;;;26.70;1.00;;;;;;4972693;28;20456;-73
2023/06/06 15:56:59;;;;;;;0.70;0.20;;;26.80;1.00;;;;;;4961966;28;20501;-76
2023/06/06 15:59:28;;;;;;;0.70;0.20;;;27.10;1.00;;;;;;4963450;28;20516;-76
2023/06/06 16:01:56;;;;;;;0.70;0.20;;;27.20;1.00;;;;;;4961284;28;20443;-76
2023/06/06 16:04:26;;;;;;;0.70;0.30;;;;;;;;;;4954746;29;20457;-75
2023/06/06 16:06:54;;;;;;;0.70;0.10;;;27.00;1.00;;;;;;4955550;28;20526;-76
2023/06/06 16:09:22;;;;;;;0.70;0.33;;;27.10;1.00;;;;;;4963860;28;20972;-77
2023/06/06 16:11:50;;;;;;;1.27;0.50;;;27.20;1.00;;;;;;4946438;28;20894;-78
2023/06/06 16:14:18;;;;;;;0.70;0.23;;;27.30;1.00;;;;;;4957069;28;20462;-76
2023/06/06 16:16:46;;;;;;;1.00;0.40;;;27.30;1.00;;;;;;4957436;28;20560;-76
2023/06/06 16:19:14;;;;;;;0.80;0.67;;;;;;;;;;4965691;28;20438;-77
2023/06/06 16:21:44;;;;;;;0.70;0.20;;;27.20;1.00;;;;;;4974115;28;20449;-74
2023/06/06 16:24:11;;;;;;;0.70;0.20;;;27.20;1.00;;;;;;4966742;28;20520;-76
2023/06/06 16:26:40;;;;;;;0.70;0.30;;;;;;;;;;4955276;28;20561;-77
2023/06/06 16:29:08;;;;;;;0.70;0.20;;;27.40;1.00;;;;;;4956508;28;20585;-76
2023/06/06 16:31:36;;;;;;;0.70;0.20;;;27.50;1.00;;;;;;4967502;28;20446;-77
2023/06/06 16:34:04;;;;;;;0.97;0.40;;;27.70;1.00;;;;;;4955789;29;20459;-75
2023/06/06 16:36:32;;;;;;;0.80;0.40;;;27.80;1.00;;;;;;4954412;28;20549;-76
2023/06/06 16:39:03;;;;;;;0.87;0.40;;;27.70;1.00;;;;;;4956767;29;20451;-74
2023/06/06 16:41:31;;;;;;;2.23;0.83;;;27.70;1.00;;;;;;4957010;29;20450;-76
2023/06/06 16:43:59;;;;;;;0.70;0.20;;;27.60;1.00;;;;;;4955536;29;20513;-75
2023/06/06 16:46:27;;;;;;;0.70;0.20;;;27.70;1.00;;;;;;4952366;28;20475;-75
2023/06/06 16:48:55;;;;;;;1.47;1.00;;;27.70;1.00;;;;;;4961708;28;20447;-77
2023/06/06 16:51:22;;;;;;;0.70;0.20;;;27.70;1.00;;;;;;4957908;29;20600;-76
2023/06/06 16:53:50;;;;;;;1.10;0.63;;;27.50;1.00;;;;;;4958200;29;20739;-75
2023/06/06 16:56:22;;;;;;;0.70;0.10;;;27.40;1.00;;;;;;4956241;28;20494;-75
2023/06/06 16:58:50;;;;;;;0.70;0.20;;;27.30;1.00;;;;;;4958248;29;20450;-75
2023/06/06 17:01:18;;;;;;;0.70;0.20;;;27.40;1.00;;;;;;4960367;29;20526;-77
2023/06/06 17:03:46;;;;;;;0.70;0.20;;;27.70;1.00;;;;;;4961025;29;20486;-78
2023/06/06 17:06:15;;;;;;;0.70;0.27;;;27.80;1.00;;;;;;4960450;29;20503;-77
2023/06/06 17:08:43;;;;;;;0.70;0.10;;;27.70;1.00;;;;;;4960015;29;20480;-76
2023/06/06 17:11:13;;;;;;;0.70;0.20;;;27.70;1.00;;;;;;4967373;28;20450;-77
2023/06/06 17:13:42;;;;;;;0.70;0.20;;;27.60;1.00;;;;;;4960056;29;20477;-77
2023/06/06 17:16:11;;;;;;;0.80;0.47;;;27.60;1.00;;;;;;4958615;29;20478;-76
2023/06/06 17:18:39;;;;;;;1.57;0.67;;;27.50;1.00;;;;;;4956891;29;20458;-76